Time;durP1;ratioP1;P1;durP2;ratioP2;P2;SDS_P1;SDS_P2;PMS_P1;PMS_P2;Temp;Humidity;BMP_temperature;BMP_pressure;BME280_temperature;BME280_humidity;BME280_pressure;Samples;Min_cycle;Max_cycle;Signal;HPM_P1;HPM_P2
2021/03/01 00:00:22;;;;;;;57.05;33.15;;;103.30;2099.20;;;;;;5089159;28;20048;-79
2021/03/01 00:02:48;;;;;;;70.90;41.85;;;103.10;2124.80;;;;;;5089127;28;20056;-79
2021/03/01 00:05:14;;;;;;;62.95;36.08;;;102.80;2176.00;;;;;;5055790;28;20394;-82
2021/03/01 00:07:41;;;;;;;52.85;32.75;;;102.70;2201.60;;;;;;5089235;28;20021;-79
2021/03/01 00:10:07;;;;;;;50.40;29.20;;;102.80;2176.00;;;;;;5090136;28;20029;-79
2021/03/01 00:12:34;;;;;;;40.60;22.58;;;102.90;2150.40;;;;;;5056394;28;20496;-80
2021/03/01 00:15:00;;;;;;;49.67;29.58;;;103.00;2124.80;;;;;;5056800;28;20029;-78
2021/03/01 00:17:26;;;;;;;51.05;29.88;;;102.90;2124.80;;;;;;5089231;28;20116;-76
2021/03/01 00:19:52;;;;;;;63.13;34.10;;;103.00;2150.40;;;;;;5056802;28;20058;-79
2021/03/01 00:22:17;;;;;;;51.85;30.75;;;103.00;2124.80;;;;;;5055407;28;20032;-79
2021/03/01 00:24:43;;;;;;;49.70;28.58;;;103.00;2124.80;;;;;;5087905;28;20029;-83
2021/03/01 00:27:09;;;;;;;86.47;42.63;;;102.90;2124.80;;;;;;5088123;28;20029;-80
2021/03/01 00:29:35;;;;;;;88.20;46.08;;;102.80;2150.40;;;;;;5088444;28;20029;-78
2021/03/01 00:32:00;;;;;;;96.70;50.92;;;102.90;2150.40;;;;;;5056522;28;20032;-80
2021/03/01 00:34:26;;;;;;;76.13;43.20;;;102.80;2150.40;;;;;;5088633;28;20128;-78
2021/03/01 00:36:52;;;;;;;78.05;44.90;;;102.80;2150.40;;;;;;5056121;28;20021;-76
2021/03/01 00:39:18;;;;;;;81.35;46.67;;;102.80;2150.40;;;;;;5055097;28;20060;-82
2021/03/01 00:41:44;;;;;;;82.03;47.70;;;102.90;2124.80;;;;;;5055854;28;20025;-77
2021/03/01 00:44:09;;;;;;;98.75;52.58;;;102.80;2150.40;;;;;;5088909;28;20028;-77
2021/03/01 00:46:35;;;;;;;99.63;54.55;;;102.60;2201.60;;;;;;5088633;28;20021;-76
2021/03/01 00:49:01;;;;;;;85.45;47.72;;;102.60;2176.00;;;;;;5088221;28;20397;-79
2021/03/01 00:51:27;;;;;;;94.88;49.20;;;102.40;2227.20;;;;;;5055002;28;20435;-79
2021/03/01 00:53:53;;;;;;;103.25;51.80;;;102.60;2176.00;;;;;;5086842;28;20132;-78
2021/03/01 00:56:18;;;;;;;86.07;45.50;;;102.70;2176.00;;;;;;5054472;28;20463;-78
2021/03/01 00:58:44;;;;;;;88.55;46.80;;;102.80;2176.00;;;;;;5086430;28;20471;-76
2021/03/01 01:01:10;;;;;;;77.72;40.85;;;102.70;2150.40;;;;;;5087916;28;20029;-79
2021/03/01 01:03:36;;;;;;;68.95;38.35;;;102.60;2176.00;;;;;;5087975;28;20052;-78
2021/03/01 01:06:02;;;;;;;86.97;46.05;;;102.50;2176.00;;;;;;5088302;28;20021;-80
2021/03/01 01:08:28;;;;;;;91.82;51.90;;;102.40;2201.60;;;;;;5088261;28;20029;-80
2021/03/01 01:10:53;;;;;;;81.00;44.42;;;102.40;2201.60;;;;;;5088234;28;20032;-82
2021/03/01 01:13:19;;;;;;;82.95;45.90;;;102.50;2176.00;;;;;;5088321;28;20025;-78
2021/03/01 01:15:45;;;;;;;86.15;45.67;;;77.60;2227.20;;;;;;5054331;28;20154;-82
2021/03/01 01:18:11;;;;;;;73.60;39.47;;;77.70;2227.20;;;;;;5054505;28;20021;-80
2021/03/01 01:20:37;;;;;;;67.57;38.75;;;102.50;2201.60;;;;;;5087943;28;20025;-81
2021/03/01 01:23:03;;;;;;;89.32;48.10;;;77.70;2227.20;;;;;;5055612;28;20178;-79
2021/03/01 01:25:29;;;;;;;68.78;38.75;;;102.40;2201.60;;;;;;5087956;28;20462;-78
2021/03/01 01:27:54;;;;;;;70.93;39.75;;;102.40;2176.00;;;;;;5087889;28;20045;-79
2021/03/01 01:30:23;;;;;;;67.43;39.40;;;102.40;2201.60;;;;;;5087530;28;20106;-78
2021/03/01 01:32:49;;;;;;;56.30;33.60;;;102.40;2201.60;;;;;;5087673;28;20127;-79
2021/03/01 01:35:16;;;;;;;70.22;39.60;;;77.40;2227.20;;;;;;5087733;28;20386;-77
2021/03/01 01:37:43;;;;;;;64.80;41.85;;;77.50;2227.20;;;;;;5087296;28;20123;-82
2021/03/01 01:40:11;;;;;;;70.28;40.35;;;77.70;2227.20;;;;;;5087410;28;20082;-79
2021/03/01 01:42:37;;;;;;;56.60;32.65;;;102.40;2227.20;;;;;;5087538;28;20033;-78
2021/03/01 01:45:07;;;;;;;48.92;29.73;;;77.70;2201.60;;;;;;5055198;28;20528;-80
2021/03/01 01:47:33;;;;;;;51.50;30.40;;;77.60;2227.20;;;;;;5087446;28;20021;-81
2021/03/01 01:49:58;;;;;;;60.47;31.25;;;77.70;2227.20;;;;;;5055344;28;20082;-76
2021/03/01 01:52:24;;;;;;;49.63;28.73;;;77.70;2201.60;;;;;;5052249;28;20060;-81
2021/03/01 01:54:50;;;;;;;47.20;26.08;;;77.70;2201.60;;;;;;5053853;28;20033;-80
2021/03/01 01:57:16;;;;;;;46.25;26.45;;;77.60;2227.20;;;;;;5053421;28;20035;-83
2021/03/01 01:59:43;;;;;;;45.40;27.75;;;77.60;2201.60;;;;;;5087572;28;20497;-78
2021/03/01 02:02:09;;;;;;;41.78;25.20;;;77.60;2201.60;;;;;;5086839;28;20028;-79
2021/03/01 02:04:41;;;;;;;47.85;27.33;;;77.40;2227.20;;;;;;5086525;28;20057;-80
2021/03/01 02:07:13;;;;;;;47.17;27.42;;;77.20;2227.20;;;;;;5053581;28;20029;-77
2021/03/01 02:09:47;;;;;;;43.50;26.27;;;77.40;2227.20;;;;;;5086343;28;20029;-76
2021/03/01 02:12:58;;;;;;;38.08;21.60;;;77.40;2227.20;;;;;;5053621;28;20029;-77
2021/03/01 02:15:43;;;;;;;36.78;20.40;;;77.40;2227.20;;;;;;5053764;28;20046;-82
2021/03/01 02:18:10;;;;;;;40.20;22.05;;;77.30;2227.20;;;;;;5054355;28;20114;-79
2021/03/01 02:20:44;;;;;;;33.75;21.45;;;77.30;2227.20;;;;;;5086791;28;20474;-77
2021/03/01 02:23:11;;;;;;;38.72;21.90;;;77.40;2227.20;;;;;;5085451;28;20025;-78
2021/03/01 02:25:42;;;;;;;42.83;22.80;;;77.40;2227.20;;;;;;5086974;28;20367;-79
2021/03/01 02:28:11;;;;;;;40.22;23.83;;;77.40;2227.20;;;;;;5085692;28;20031;-78
2021/03/01 02:30:59;;;;;;;44.95;24.45;;;77.40;2227.20;;;;;;5087084;28;20029;-77
2021/03/01 02:33:29;;;;;;;40.38;24.08;;;77.30;2227.20;;;;;;5051837;28;20041;-78
2021/03/01 02:36:03;;;;;;;32.80;20.67;;;77.30;2227.20;;;;;;5054174;28;20378;-76
2021/03/01 02:38:32;;;;;;;38.80;23.02;;;77.20;2227.20;;;;;;5054474;28;20479;-79
2021/03/01 02:40:59;;;;;;;54.15;31.00;;;77.30;2227.20;;;;;;5086253;28;20143;-79
2021/03/01 02:43:27;;;;;;;52.65;30.08;;;77.20;2227.20;;;;;;5054140;28;20033;-80
2021/03/01 02:45:55;;;;;;;53.45;31.05;;;76.90;2227.20;;;;;;5086375;28;20039;-82
2021/03/01 02:48:22;;;;;;;47.30;26.63;;;77.00;2227.20;;;;;;5086064;28;20050;-81
2021/03/01 02:50:49;;;;;;;37.42;21.90;;;77.20;2227.20;;;;;;5086018;28;20048;-81
2021/03/01 02:53:17;;;;;;;37.92;20.23;;;77.20;2227.20;;;;;;5084709;28;20390;-77
2021/03/01 02:55:44;;;;;;;36.80;21.35;;;77.20;2227.20;;;;;;5086483;28;20424;-81
2021/03/01 02:58:11;;;;;;;36.72;20.77;;;77.20;2227.20;;;;;;5085175;28;20160;-78
2021/03/01 03:00:42;;;;;;;32.85;19.42;;;77.20;2227.20;;;;;;5085945;28;20420;-81
2021/03/01 03:03:09;;;;;;;30.67;18.45;;;77.20;2227.20;;;;;;5052297;28;20056;-78
2021/03/01 03:05:36;;;;;;;35.75;21.40;;;77.20;2227.20;;;;;;5086156;28;20025;-81
2021/03/01 03:08:03;;;;;;;31.85;20.15;;;77.20;2227.20;;;;;;5086086;28;20369;-80
2021/03/01 03:10:30;;;;;;;52.50;27.40;;;77.20;2227.20;;;;;;5086203;28;20059;-81
2021/03/01 03:12:57;;;;;;;57.95;30.13;;;77.00;2227.20;;;;;;5052553;28;20442;-78
2021/03/01 03:15:25;;;;;;;48.78;27.58;;;77.00;2227.20;;;;;;5086033;28;20035;-81
2021/03/01 03:17:51;;;;;;;40.72;24.30;;;77.10;2227.20;;;;;;5052460;28;20021;-76
2021/03/01 03:20:17;;;;;;;39.33;21.08;;;77.10;2227.20;;;;;;5054090;28;20067;-79
2021/03/01 03:22:43;;;;;;;35.47;21.67;;;77.00;2227.20;;;;;;5056088;28;20074;-78
2021/03/01 03:25:10;;;;;;;31.27;18.60;;;76.90;2227.20;;;;;;5090214;28;20025;-81
2021/03/01 03:27:35;;;;;;;35.90;19.63;;;76.90;2227.20;;;;;;5088753;28;20470;-77
2021/03/01 03:30:07;;;;;;;38.53;21.38;;;52.10;2227.20;;;;;;5090099;28;20025;-75
2021/03/01 03:32:33;;;;;;;36.60;21.02;;;76.80;2227.20;;;;;;5090065;28;20029;-82
2021/03/01 03:34:59;;;;;;;42.05;21.98;;;76.80;2227.20;;;;;;5090026;28;20399;-81
2021/03/01 03:37:33;;;;;;;42.88;23.58;;;76.80;2227.20;;;;;;5057298;28;20028;-76
2021/03/01 03:40:01;;;;;;;40.13;22.25;;;76.80;2227.20;;;;;;5090066;28;20470;-82
2021/03/01 03:42:28;;;;;;;39.75;21.75;;;76.80;2227.20;;;;;;5089499;28;20312;-77
2021/03/01 03:44:56;;;;;;;40.13;20.95;;;76.80;2227.20;;;;;;5089839;28;20028;-79
2021/03/01 03:47:23;;;;;;;42.40;22.95;;;52.10;2227.20;;;;;;5089732;28;20029;-80
2021/03/01 03:49:51;;;;;;;44.40;22.55;;;52.10;2227.20;;;;;;5089428;28;20493;-80
2021/03/01 03:52:21;;;;;;;56.17;27.75;;;52.10;2227.20;;;;;;5090233;28;20025;-77
2021/03/01 03:54:50;;;;;;;49.30;25.27;;;52.10;2227.20;;;;;;5057393;28;20057;-77
2021/03/01 03:57:23;;;;;;;47.83;25.40;;;76.90;2227.20;;;;;;5089204;28;20029;-79
2021/03/01 03:59:52;;;;;;;93.85;40.58;;;76.90;2227.20;;;;;;5089588;28;20029;-75
2021/03/01 04:02:21;;;;;;;83.05;39.53;;;76.80;2227.20;;;;;;5089364;28;20110;-77
2021/03/01 04:04:49;;;;;;;63.47;32.67;;;76.90;2227.20;;;;;;5088644;28;20049;-80
2021/03/01 04:07:17;;;;;;;60.60;30.45;;;76.90;2227.20;;;;;;5089286;28;20108;-79
2021/03/01 04:09:44;;;;;;;49.92;26.98;;;77.00;2227.20;;;;;;5089210;28;20036;-79
2021/03/01 04:12:13;;;;;;;71.65;34.78;;;76.90;2227.20;;;;;;5056287;28;20044;-80
2021/03/01 04:14:41;;;;;;;53.65;28.27;;;76.90;2227.20;;;;;;5055671;28;20063;-79
2021/03/01 04:17:12;;;;;;;71.75;33.35;;;76.80;2227.20;;;;;;5089048;28;20036;-77
2021/03/01 04:19:39;;;;;;;103.90;40.40;;;76.80;2227.20;;;;;;5089828;28;20036;-76
2021/03/01 04:22:07;;;;;;;67.97;36.83;;;77.00;2227.20;;;;;;5089471;28;20457;-77
2021/03/01 04:24:35;;;;;;;57.28;30.83;;;77.00;2227.20;;;;;;5057565;28;20524;-82
2021/03/01 04:27:02;;;;;;;76.30;37.33;;;76.90;2227.20;;;;;;5061185;28;20025;-82
2021/03/01 04:29:30;;;;;;;83.95;42.88;;;76.90;2227.20;;;;;;5056945;28;20033;-79
2021/03/01 04:31:57;;;;;;;95.45;45.97;;;76.90;2227.20;;;;;;5089599;28;20068;-80
2021/03/01 04:34:24;;;;;;;284.23;121.35;;;76.90;2227.20;;;;;;5091526;28;20039;-82
2021/03/01 04:36:50;;;;;;;132.52;66.90;;;76.90;2227.20;;;;;;5091976;28;20024;-81
2021/03/01 04:39:16;;;;;;;92.43;52.30;;;76.90;2227.20;;;;;;5056408;28;20025;-76
2021/03/01 04:41:44;;;;;;;91.18;47.20;;;77.30;2227.20;;;;;;5088682;28;20071;-80
2021/03/01 04:44:12;;;;;;;111.15;59.30;;;76.80;2227.20;;;;;;5088542;28;20458;-80
2021/03/01 04:46:39;;;;;;;87.45;48.95;;;52.10;2227.20;;;;;;5088579;28;20024;-78
2021/03/01 04:49:06;;;;;;;74.43;43.20;;;52.10;2227.20;;;;;;5088686;28;20025;-82
2021/03/01 04:51:33;;;;;;;142.02;69.82;;;51.70;2227.20;;;;;;5056023;28;20112;-79
2021/03/01 04:54:00;;;;;;;103.70;56.15;;;51.80;2227.20;;;;;;5055965;28;20029;-79
2021/03/01 04:56:26;;;;;;;90.50;50.40;;;52.00;2227.20;;;;;;5055675;28;20111;-82
2021/03/01 04:58:53;;;;;;;77.38;42.95;;;51.90;2227.20;;;;;;5089124;28;20358;-81
2021/03/01 05:01:19;;;;;;;70.97;41.30;;;52.00;2227.20;;;;;;5087949;28;20121;-78
2021/03/01 05:03:46;;;;;;;71.00;38.35;;;51.90;2227.20;;;;;;5088357;28;20060;-77
2021/03/01 05:06:12;;;;;;;201.80;98.78;;;52.00;2227.20;;;;;;5087637;28;20039;-82
2021/03/01 05:08:39;;;;;;;89.18;50.10;;;52.10;2227.20;;;;;;5088234;28;20025;-80
2021/03/01 05:11:10;;;;;;;85.57;46.90;;;52.10;2227.20;;;;;;5088268;28;20032;-80
2021/03/01 05:13:36;;;;;;;68.78;40.00;;;52.10;2227.20;;;;;;5055505;28;20477;-80
2021/03/01 05:16:02;;;;;;;75.57;44.55;;;76.80;2227.20;;;;;;5088075;28;20063;-78
2021/03/01 05:18:29;;;;;;;81.78;46.97;;;76.80;2227.20;;;;;;5088150;28;20029;-80
2021/03/01 05:20:56;;;;;;;81.22;48.22;;;76.80;2227.20;;;;;;5087710;28;20462;-83
2021/03/01 05:23:23;;;;;;;78.13;49.22;;;52.00;2227.20;;;;;;5086604;28;20104;-80
2021/03/01 05:25:49;;;;;;;80.20;50.75;;;51.90;2227.20;;;;;;5055967;28;20458;-78
2021/03/01 05:28:15;;;;;;;196.23;99.78;;;52.00;2227.20;;;;;;5086599;28;20036;-81
2021/03/01 05:30:40;;;;;;;137.93;81.13;;;52.10;2227.20;;;;;;5088169;28;20032;-82
2021/03/01 05:33:06;;;;;;;115.05;68.90;;;76.80;2227.20;;;;;;5087695;28;20025;-82
2021/03/01 05:35:32;;;;;;;113.68;63.72;;;76.90;2227.20;;;;;;5087777;28;20386;-82
2021/03/01 05:37:58;;;;;;;110.95;64.47;;;76.90;2227.20;;;;;;5055539;28;20525;-78
2021/03/01 05:40:24;;;;;;;99.13;56.10;;;76.90;2227.20;;;;;;5054413;28;20029;-83
2021/03/01 05:42:53;;;;;;;99.25;53.80;;;51.90;2227.20;;;;;;5087272;28;20028;-77
2021/03/01 05:45:19;;;;;;;93.80;56.10;;;51.40;2227.20;;;;;;5088140;28;20024;-75
2021/03/01 05:47:45;;;;;;;101.47;58.58;;;51.40;2227.20;;;;;;5087492;28;20021;-79
2021/03/01 05:50:11;;;;;;;68.13;41.80;;;51.20;2227.20;;;;;;5087117;28;20025;-80
2021/03/01 05:52:41;;;;;;;69.72;40.35;;;26.30;2201.60;;;;;;5085887;28;20033;-77
2021/03/01 05:55:08;;;;;;;92.00;55.55;;;51.20;2227.20;;;;;;5087706;28;20089;-80
2021/03/01 05:57:37;;;;;;;96.80;50.95;;;51.50;2227.20;;;;;;5086372;28;20052;-79
2021/03/01 06:00:04;;;;;;;96.75;56.20;;;51.40;2227.20;;;;;;5053565;28;20043;-75
2021/03/01 06:02:32;;;;;;;90.53;52.72;;;51.30;2227.20;;;;;;5086725;28;20029;-77
2021/03/01 06:04:58;;;;;;;94.25;56.08;;;51.70;2227.20;;;;;;5086879;28;20429;-81
2021/03/01 06:07:23;;;;;;;108.03;63.50;;;51.90;2227.20;;;;;;5087576;28;20029;-79
2021/03/01 06:09:49;;;;;;;105.05;56.38;;;51.90;2227.20;;;;;;5054245;28;20032;-81
2021/03/01 06:12:15;;;;;;;79.43;43.67;;;51.60;2227.20;;;;;;5086968;28;20021;-81
2021/03/01 06:14:41;;;;;;;70.55;41.00;;;51.30;2227.20;;;;;;5087062;28;20388;-78
2021/03/01 06:17:19;;;;;;;68.72;40.40;;;51.50;2227.20;;;;;;5053020;28;20060;-80
2021/03/01 06:19:56;;;;;;;64.20;36.00;;;51.50;2227.20;;;;;;5086876;28;20035;-76
2021/03/01 06:22:43;;;;;;;66.72;40.03;;;51.90;2227.20;;;;;;5087350;28;20021;-79
2021/03/01 06:25:16;;;;;;;68.55;42.33;;;52.00;2227.20;;;;;;5052229;28;20540;-79
2021/03/01 06:27:50;;;;;;;;;;;51.80;2227.20;;;;;;5054604;28;20087;-79
2021/03/01 06:30:18;;;;;;;89.68;47.50;;;51.70;2227.20;;;;;;5052797;28;20293;-80
2021/03/01 06:33:07;;;;;;;87.60;55.05;;;51.70;2227.20;;;;;;5054235;28;20462;-81
2021/03/01 06:35:55;;;;;;;163.20;85.05;;;51.60;2227.20;;;;;;5053037;28;20074;-79
2021/03/01 06:38:34;;;;;;;232.95;110.00;;;51.40;2227.20;;;;;;5052680;28;20025;-79
2021/03/01 06:41:20;;;;;;;146.02;78.20;;;51.50;2227.20;;;;;;5086293;28;20032;-75
2021/03/01 06:43:52;;;;;;;91.93;51.10;;;51.60;2227.20;;;;;;5086390;28;20033;-79
2021/03/01 06:46:17;;;;;;;94.22;54.40;;;51.70;2227.20;;;;;;5052613;28;20029;-80
2021/03/01 06:48:43;;;;;;;73.80;42.60;;;51.70;2227.20;;;;;;5086487;28;20032;-82
2021/03/01 06:51:09;;;;;;;72.68;41.42;;;51.90;2227.20;;;;;;5086203;28;20470;-78
2021/03/01 06:53:37;;;;;;;85.53;46.72;;;52.00;2227.20;;;;;;5084925;28;20044;-77
2021/03/01 06:56:11;;;;;;;77.90;45.50;;;52.00;2227.20;;;;;;5085698;28;20449;-78
2021/03/01 06:58:57;;;;;;;71.72;39.88;;;51.70;2227.20;;;;;;5051474;28;20382;-80
2021/03/01 07:01:24;;;;;;;72.80;44.72;;;51.80;2227.20;;;;;;5086200;28;20029;-79
2021/03/01 07:03:51;;;;;;;58.38;35.88;;;51.70;2227.20;;;;;;5086141;28;20041;-79
2021/03/01 07:06:18;;;;;;;68.75;41.55;;;51.90;2227.20;;;;;;5085873;28;20031;-77
2021/03/01 07:08:54;;;;;;;65.88;40.58;;;51.90;2227.20;;;;;;5086071;28;20025;-78
2021/03/01 07:11:30;;;;;;;88.70;52.20;;;52.10;2227.20;;;;;;5052418;28;20025;-76
2021/03/01 07:14:05;;;;;;;72.30;41.33;;;52.10;2227.20;;;;;;5085970;28;20032;-77
2021/03/01 07:16:51;;;;;;;113.63;68.65;;;52.00;2227.20;;;;;;5053035;28;20458;-79
2021/03/01 07:19:20;;;;;;;81.25;44.88;;;76.80;2227.20;;;;;;5086380;28;20032;-80
2021/03/01 07:21:49;;;;;;;62.83;35.08;;;52.10;2227.20;;;;;;5084674;28;20029;-80
2021/03/01 07:24:33;;;;;;;52.55;32.60;;;77.00;2227.20;;;;;;5085935;28;20029;-79
2021/03/01 07:27:02;;;;;;;46.38;30.33;;;77.20;2227.20;;;;;;5084987;28;20048;-82
2021/03/01 07:29:32;;;;;;;52.88;32.75;;;77.30;2227.20;;;;;;5052314;28;20032;-80
2021/03/01 07:32:06;;;;;;;60.63;34.33;;;77.30;2227.20;;;;;;5053589;28;20059;-80
2021/03/01 07:34:34;;;;;;;53.70;32.75;;;77.50;2227.20;;;;;;5052017;28;20120;-81
2021/03/01 07:37:00;;;;;;;56.22;35.13;;;77.70;2227.20;;;;;;5053785;28;20029;-76
2021/03/01 07:39:28;;;;;;;53.35;34.70;;;77.70;2227.20;;;;;;5053551;28;20112;-81
2021/03/01 07:41:55;;;;;;;55.40;33.42;;;77.60;2227.20;;;;;;5086796;28;20043;-81
2021/03/01 07:44:34;;;;;;;52.83;32.50;;;77.50;2227.20;;;;;;5086592;28;20466;-79
2021/03/01 07:47:03;;;;;;;51.38;34.35;;;102.40;2227.20;;;;;;5086415;28;20374;-83
2021/03/01 07:49:43;;;;;;;68.57;39.42;;;102.60;2227.20;;;;;;5085473;28;20025;-78
2021/03/01 07:52:18;;;;;;;127.63;71.32;;;102.70;2227.20;;;;;;5053425;28;20025;-81
2021/03/01 07:54:51;;;;;;;90.38;51.35;;;102.50;2227.20;;;;;;5052434;28;20440;-76
2021/03/01 07:57:18;;;;;;;99.80;57.75;;;102.70;2227.20;;;;;;5052700;28;20051;-76
2021/03/01 07:59:44;;;;;;;85.10;47.10;;;102.70;2227.20;;;;;;5085450;28;20036;-77
2021/03/01 08:02:13;;;;;;;115.03;64.32;;;102.80;2227.20;;;;;;5085459;28;20025;-80
2021/03/01 08:04:39;;;;;;;78.40;48.83;;;102.80;2227.20;;;;;;5085213;28;20175;-80
2021/03/01 08:07:05;;;;;;;75.55;45.20;;;103.00;2227.20;;;;;;5087190;28;20116;-75
2021/03/01 08:09:51;;;;;;;64.70;38.92;;;103.20;2227.20;;;;;;5089094;28;20025;-80
2021/03/01 08:12:32;;;;;;;57.47;38.05;;;128.00;2252.80;;;;;;5056672;28;20040;-81
2021/03/01 08:15:08;;;;;;;63.13;38.70;;;128.20;2227.20;;;;;;5055651;28;20103;-76
2021/03/01 08:17:39;;;;;;;57.45;39.00;;;128.40;2227.20;;;;;;5089466;28;20402;-76
2021/03/01 08:20:05;;;;;;;67.97;44.20;;;128.50;2176.00;;;;;;5088884;28;20040;-77
2021/03/01 08:22:31;;;;;;;72.45;46.38;;;128.60;2201.60;;;;;;5055307;28;20021;-77
2021/03/01 08:24:57;;;;;;;61.30;41.75;;;128.80;2176.00;;;;;;5089013;28;20069;-77
2021/03/01 08:27:26;;;;;;;64.93;44.03;;;128.90;2176.00;;;;;;5089175;28;20021;-75
2021/03/01 08:30:16;;;;;;;78.18;48.55;;;153.60;2150.40;;;;;;5056358;28;20021;-78
2021/03/01 08:32:42;;;;;;;70.45;44.25;;;153.60;2150.40;;;;;;5056244;28;20462;-76
2021/03/01 08:35:37;;;;;;;69.57;44.90;;;153.60;2150.40;;;;;;5088908;28;20040;-75
2021/03/01 08:38:04;;;;;;;69.47;47.28;;;153.80;2150.40;;;;;;5055544;28;20033;-78
2021/03/01 08:40:30;;;;;;;72.20;47.47;;;153.90;2124.80;;;;;;5056087;28;20119;-75
2021/03/01 08:43:06;;;;;;;64.05;42.78;;;154.10;2099.20;;;;;;5053879;28;20029;-75
2021/03/01 08:45:42;;;;;;;64.07;43.88;;;154.10;2073.60;;;;;;5053568;28;20025;-75
2021/03/01 08:48:19;;;;;;;57.95;37.78;;;154.30;2073.60;;;;;;5053373;28;20066;-73
2021/03/01 08:50:48;;;;;;;56.85;37.03;;;154.40;2048.00;;;;;;5055106;28;20025;-77
2021/03/01 08:53:29;;;;;;;57.00;35.15;;;179.20;2048.00;;;;;;5053657;28;20033;-75
2021/03/01 08:55:59;;;;;;;51.47;36.83;;;179.30;2022.40;;;;;;5088243;28;20025;-74
2021/03/01 08:58:35;;;;;;;48.63;34.65;;;179.40;2022.40;;;;;;5054216;28;20446;-75
2021/03/01 09:01:02;;;;;;;51.55;33.53;;;179.60;1971.20;;;;;;5055601;28;20540;-73
2021/03/01 09:03:38;;;;;;;63.75;31.35;;;179.70;1971.20;;;;;;5087812;28;20102;-75
2021/03/01 09:06:06;;;;;;;40.90;28.65;;;179.70;1945.60;;;;;;5055447;28;20029;-73
2021/03/01 09:08:38;;;;;;;47.83;29.70;;;180.00;1945.60;;;;;;5088070;28;20029;-74
2021/03/01 09:11:21;;;;;;;48.33;33.13;;;180.10;1920.00;;;;;;5055376;28;20033;-75
2021/03/01 09:13:49;;;;;;;56.00;34.85;;;204.90;1894.40;;;;;;5054380;28;20090;-74
2021/03/01 09:16:16;;;;;;;36.35;23.65;;;205.00;1868.80;;;;;;5055806;28;20065;-75
2021/03/01 09:18:43;;;;;;;35.17;23.38;;;205.10;1843.20;;;;;;5053454;28;20029;-75
2021/03/01 09:21:12;;;;;;;39.35;26.17;;;205.20;1843.20;;;;;;5087677;28;20029;-76
2021/03/01 09:23:41;;;;;;;37.63;24.05;;;205.30;1843.20;;;;;;5055270;28;20029;-77
2021/03/01 09:26:08;;;;;;;34.55;21.88;;;205.60;1817.60;;;;;;5055123;28;20021;-77
2021/03/01 09:28:36;;;;;;;34.33;22.85;;;205.70;1843.20;;;;;;5088239;28;20029;-76
2021/03/01 09:31:13;;;;;;;32.75;21.00;;;230.40;1817.60;;;;;;5055646;28;20547;-75
2021/03/01 09:33:40;;;;;;;39.72;24.27;;;230.60;1817.60;;;;;;5055049;28;20025;-76
2021/03/01 09:36:06;;;;;;;39.65;25.58;;;230.80;1766.40;;;;;;5087552;28;20025;-77
2021/03/01 09:38:33;;;;;;;34.72;24.83;;;230.90;1740.80;;;;;;5087471;28;20021;-77
2021/03/01 09:41:05;;;;;;;27.05;19.77;;;231.00;1715.20;;;;;;5053682;28;20021;-76
2021/03/01 09:43:32;;;;;;;34.83;21.85;;;231.00;1689.60;;;;;;5087561;28;20036;-77
2021/03/01 09:48:55;;;;;;;31.75;21.23;;;231.00;1638.40;;;;;;4918253;22;20107;-80
2021/03/01 09:51:25;;;;;;;35.92;24.38;;;231.20;1638.40;;;;;;5054204;28;20043;-78
2021/03/01 09:53:51;;;;;;;27.27;18.30;;;231.20;1587.20;;;;;;5017165;28;20444;-81
2021/03/01 09:56:17;;;;;;;48.05;28.20;;;231.10;1561.60;;;;;;5033876;28;20026;-80
2021/03/01 09:58:44;;;;;;;55.00;35.08;;;231.20;1561.60;;;;;;5034467;28;20025;-81
2021/03/01 10:01:13;;;;;;;43.85;30.60;;;231.10;1561.60;;;;;;5034545;28;20026;-76
2021/03/01 10:03:40;;;;;;;35.13;20.75;;;231.20;1561.60;;;;;;5034528;28;20482;-75
2021/03/01 10:06:07;;;;;;;43.60;24.73;;;231.20;1561.60;;;;;;5035029;28;20135;-76
2021/03/01 10:08:34;;;;;;;21.13;14.63;;;231.20;1561.60;;;;;;5049715;28;20036;-76
2021/03/01 10:11:00;;;;;;;32.80;21.38;;;256.00;1536.00;;;;;;5050129;28;20074;-76
2021/03/01 10:13:34;;;;;;;46.25;33.15;;;231.20;1536.00;;;;;;5035776;28;20029;-77
2021/03/01 10:16:06;;;;;;;48.17;28.83;;;231.10;1536.00;;;;;;5036200;28;20119;-76
2021/03/01 10:18:33;;;;;;;24.15;17.02;;;231.20;1561.60;;;;;;5054379;28;20079;-76
2021/03/01 10:21:01;;;;;;;35.45;25.40;;;231.20;1587.20;;;;;;5036346;28;20139;-80
2021/03/01 10:23:41;;;;;;;41.97;28.85;;;231.30;1536.00;;;;;;5035813;28;20120;-83
2021/03/01 10:26:20;;;;;;;36.25;24.30;;;231.30;1536.00;;;;;;5036292;28;20029;-85
2021/03/01 10:28:59;;;;;;;38.83;28.45;;;256.00;1536.00;;;;;;5036140;28;20025;-80
2021/03/01 10:31:35;;;;;;;56.92;33.53;;;256.10;1536.00;;;;;;5053653;28;20033;-81
2021/03/01 10:34:13;;;;;;;40.42;28.88;;;256.40;1459.20;;;;;;5054335;28;20420;-83
2021/03/01 10:36:48;;;;;;;33.83;26.75;;;256.30;1459.20;;;;;;5034731;28;20021;-84
2021/03/01 10:39:17;;;;;;;50.72;30.73;;;256.40;1484.80;;;;;;5053398;28;20385;-82
2021/03/01 10:41:49;;;;;;;35.47;21.63;;;256.50;1484.80;;;;;;5035086;28;20072;-82
2021/03/01 10:44:16;;;;;;;30.17;19.40;;;256.40;1484.80;;;;;;5034772;28;20025;-81
2021/03/01 10:46:49;;;;;;;33.40;24.25;;;256.40;1484.80;;;;;;5035005;28;20151;-81
2021/03/01 10:49:16;;;;;;;29.10;19.20;;;256.70;1484.80;;;;;;5055583;28;20095;-82
2021/03/01 10:51:42;;;;;;;27.98;16.45;;;256.60;1459.20;;;;;;5027316;28;20092;-81
2021/03/01 10:54:09;;;;;;;24.15;12.05;;;281.60;1459.20;;;;;;5014064;28;20033;-82
2021/03/01 10:56:35;;;;;;;36.97;28.50;;;281.80;1433.60;;;;;;5028880;28;20033;-79
2021/03/01 10:59:01;;;;;;;28.95;18.48;;;281.80;1459.20;;;;;;5012626;28;20360;-77
2021/03/01 11:01:32;;;;;;;26.73;19.42;;;281.60;1484.80;;;;;;5029357;28;20030;-76
2021/03/01 11:03:57;;;;;;;25.33;17.83;;;281.70;1433.60;;;;;;5013113;28;20041;-80
2021/03/01 11:06:23;;;;;;;19.95;11.73;;;256.90;1433.60;;;;;;5013177;28;20034;-82
2021/03/01 11:08:49;;;;;;;34.80;23.33;;;256.80;1408.00;;;;;;5012872;28;20029;-78
2021/03/01 11:11:15;;;;;;;30.55;19.45;;;256.80;1459.20;;;;;;5013892;28;20116;-77
2021/03/01 11:13:40;;;;;;;51.08;25.90;;;256.70;1459.20;;;;;;5012681;28;20551;-78
2021/03/01 11:16:06;;;;;;;30.77;18.80;;;256.70;1459.20;;;;;;5018521;28;20058;-79
2021/03/01 11:18:32;;;;;;;34.95;22.73;;;281.60;1459.20;;;;;;5044863;28;20030;-79
2021/03/01 11:20:58;;;;;;;31.88;23.60;;;281.80;1484.80;;;;;;5028083;28;20383;-79
2021/03/01 11:23:23;;;;;;;26.45;18.10;;;282.00;1484.80;;;;;;5011896;28;20064;-79
2021/03/01 11:25:49;;;;;;;28.10;19.90;;;281.90;1484.80;;;;;;5012481;28;20467;-79
2021/03/01 11:28:15;;;;;;;24.98;16.65;;;281.80;1484.80;;;;;;5029155;28;20490;-79
2021/03/01 11:30:41;;;;;;;29.45;20.88;;;281.70;1484.80;;;;;;5012507;28;20022;-78
2021/03/01 11:33:07;;;;;;;30.95;21.45;;;281.80;1484.80;;;;;;5012219;28;20026;-79
2021/03/01 11:35:34;;;;;;;31.85;21.77;;;281.90;1484.80;;;;;;5012422;28;20030;-78
2021/03/01 11:38:00;;;;;;;37.17;25.50;;;281.80;1484.80;;;;;;5014352;28;20105;-78
2021/03/01 11:40:26;;;;;;;42.70;28.98;;;281.70;1484.80;;;;;;5013898;28;20466;-79
2021/03/01 11:42:52;;;;;;;34.90;23.67;;;282.10;1484.80;;;;;;5016853;28;20030;-81
2021/03/01 11:45:18;;;;;;;30.70;21.38;;;307.30;1433.60;;;;;;5032843;28;20026;-77
2021/03/01 11:47:44;;;;;;;29.17;18.73;;;307.80;1382.40;;;;;;5023797;28;20049;-77
2021/03/01 11:50:10;;;;;;;33.83;23.52;;;307.50;1408.00;;;;;;5037245;28;20095;-78
2021/03/01 11:52:36;;;;;;;25.75;19.02;;;307.90;1356.80;;;;;;5047599;28;20036;-77
2021/03/01 11:55:03;;;;;;;28.35;21.27;;;332.90;1356.80;;;;;;5035771;28;20033;-79
2021/03/01 11:57:29;;;;;;;32.92;21.48;;;332.80;1331.20;;;;;;5034175;28;20087;-77
2021/03/01 11:59:55;;;;;;;31.65;20.85;;;307.80;1305.60;;;;;;5037040;28;20413;-79
2021/03/01 12:02:20;;;;;;;28.65;19.42;;;307.60;1356.80;;;;;;5036063;28;20481;-79
2021/03/01 12:04:47;;;;;;;28.33;17.85;;;308.00;1331.20;;;;;;5035933;28;20087;-78
2021/03/01 12:07:13;;;;;;;39.00;23.85;;;332.90;1331.20;;;;;;5034965;28;20033;-77
2021/03/01 12:09:39;;;;;;;45.83;27.83;;;307.70;1331.20;;;;;;5035740;28;20057;-77
2021/03/01 12:12:05;;;;;;;36.70;25.15;;;307.30;1382.40;;;;;;5036870;28;20064;-78
2021/03/01 12:14:31;;;;;;;51.22;34.50;;;282.50;1382.40;;;;;;5036524;28;20112;-81